sensor_id;sensor_type;location;lat;lon;timestamp;pressure;altitude;pressure_sealevel;temperature;humidity
73338;BME280;61575;49.908;35.556;2023-05-15T00:02:05;99554.94;;;11.86;60.84
73338;BME280;61575;49.908;35.556;2023-05-15T00:05:08;99556.56;;;11.96;59.78
73338;BME280;61575;49.908;35.556;2023-05-15T00:08:10;99555.34;;;12.06;58.89
73338;BME280;61575;49.908;35.556;2023-05-15T00:11:12;99547.41;;;12.13;58.41
73338;BME280;61575;49.908;35.556;2023-05-15T00:14:14;99553.44;;;12.15;58.76
73338;BME280;61575;49.908;35.556;2023-05-15T00:17:15;99544.53;;;12.14;58.39
73338;BME280;61575;49.908;35.556;2023-05-15T00:20:17;99553.78;;;12.12;59.14
73338;BME280;61575;49.908;35.556;2023-05-15T00:23:19;99554.34;;;12.07;59.25
73338;BME280;61575;49.908;35.556;2023-05-15T00:26:22;99560.22;;;12.03;58.65
73338;BME280;61575;49.908;35.556;2023-05-15T00:29:24;99560.41;;;12.01;58.54
73338;BME280;61575;49.908;35.556;2023-05-15T00:32:25;99567.28;;;12.04;58.33
73338;BME280;61575;49.908;35.556;2023-05-15T00:35:27;99560.03;;;12.04;57.92
73338;BME280;61575;49.908;35.556;2023-05-15T00:38:31;99567.09;;;12.05;57.84
73338;BME280;61575;49.908;35.556;2023-05-15T00:41:34;99571.66;;;12.05;57.79
73338;BME280;61575;49.908;35.556;2023-05-15T00:44:39;99560.41;;;12.01;58.03
73338;BME280;61575;49.908;35.556;2023-05-15T00:47:42;99567.50;;;11.94;58.36
73338;BME280;61575;49.908;35.556;2023-05-15T00:50:44;99562.84;;;11.88;58.64
73338;BME280;61575;49.908;35.556;2023-05-15T00:53:46;99560.50;;;11.85;58.83
73338;BME280;61575;49.908;35.556;2023-05-15T00:56:49;99564.06;;;11.77;59.33
73338;BME280;61575;49.908;35.556;2023-05-15T00:59:53;99564.94;;;11.70;59.68
73338;BME280;61575;49.908;35.556;2023-05-15T01:02:58;99554.22;;;11.62;60.32
73338;BME280;61575;49.908;35.556;2023-05-15T01:06:01;99564.69;;;11.57;60.97
73338;BME280;61575;49.908;35.556;2023-05-15T01:09:03;99555.94;;;11.54;60.31
73338;BME280;61575;49.908;35.556;2023-05-15T01:12:08;99549.25;;;11.50;60.41
73338;BME280;61575;49.908;35.556;2023-05-15T01:15:10;99547.06;;;11.46;60.72
73338;BME280;61575;49.908;35.556;2023-05-15T01:18:12;99547.59;;;11.41;60.80
73338;BME280;61575;49.908;35.556;2023-05-15T01:21:49;99551.47;;;11.39;60.50
73338;BME280;61575;49.908;35.556;2023-05-15T01:28:41;99552.00;;;11.34;60.69
73338;BME280;61575;49.908;35.556;2023-05-15T01:31:53;99554.69;;;11.34;60.94
73338;BME280;61575;49.908;35.556;2023-05-15T01:35:22;99547.97;;;11.30;61.59
73338;BME280;61575;49.908;35.556;2023-05-15T01:38:37;99548.50;;;11.26;61.34
73338;BME280;61575;49.908;35.556;2023-05-15T01:45:03;99552.41;;;11.15;62.50
73338;BME280;61575;49.908;35.556;2023-05-15T01:48:07;99562.00;;;11.09;62.05
73338;BME280;61575;49.908;35.556;2023-05-15T01:51:10;99564.00;;;11.07;62.20
73338;BME280;61575;49.908;35.556;2023-05-15T01:54:16;99556.28;;;11.04;63.15
73338;BME280;61575;49.908;35.556;2023-05-15T01:57:19;99551.44;;;11.00;63.00
73338;BME280;61575;49.908;35.556;2023-05-15T02:00:25;99557.81;;;10.99;62.78
73338;BME280;61575;49.908;35.556;2023-05-15T02:03:30;99560.69;;;10.97;62.90
73338;BME280;61575;49.908;35.556;2023-05-15T02:06:35;99557.16;;;10.97;63.21
73338;BME280;61575;49.908;35.556;2023-05-15T02:09:38;99565.22;;;10.97;63.40
73338;BME280;61575;49.908;35.556;2023-05-15T02:12:41;99567.22;;;10.95;63.62
73338;BME280;61575;49.908;35.556;2023-05-15T02:15:43;99565.72;;;10.92;64.12
73338;BME280;61575;49.908;35.556;2023-05-15T02:18:47;99574.63;;;10.93;63.86
73338;BME280;61575;49.908;35.556;2023-05-15T02:21:50;99565.22;;;10.88;65.33
73338;BME280;61575;49.908;35.556;2023-05-15T02:24:52;99565.56;;;10.94;64.57
73338;BME280;61575;49.908;35.556;2023-05-15T02:27:56;99567.91;;;10.97;64.09
73338;BME280;61575;49.908;35.556;2023-05-15T02:31:05;99557.81;;;10.99;64.30
73338;BME280;61575;49.908;35.556;2023-05-15T02:34:27;99557.66;;;11.00;65.05
73338;BME280;61575;49.908;35.556;2023-05-15T02:37:34;99559.81;;;11.05;64.11
73338;BME280;61575;49.908;35.556;2023-05-15T02:40:39;99559.31;;;11.09;64.03
73338;BME280;61575;49.908;35.556;2023-05-15T02:43:42;99559.63;;;11.14;64.59
73338;BME280;61575;49.908;35.556;2023-05-15T02:46:46;99556.41;;;11.19;64.50
73338;BME280;61575;49.908;35.556;2023-05-15T02:49:50;99562.59;;;11.28;64.09
73338;BME280;61575;49.908;35.556;2023-05-15T02:53:03;99562.22;;;11.39;63.95
73338;BME280;61575;49.908;35.556;2023-05-15T02:56:05;99554.63;;;11.50;63.38
73338;BME280;61575;49.908;35.556;2023-05-15T02:59:07;99556.22;;;11.68;62.27
73338;BME280;61575;49.908;35.556;2023-05-15T03:02:09;99557.97;;;11.83;61.89
73338;BME280;61575;49.908;35.556;2023-05-15T03:05:11;99563.44;;;11.98;61.52
73338;BME280;61575;49.908;35.556;2023-05-15T03:08:13;99570.13;;;12.10;61.10
73338;BME280;61575;49.908;35.556;2023-05-15T03:11:15;99572.22;;;12.23;60.71
73338;BME280;61575;49.908;35.556;2023-05-15T03:14:19;99569.13;;;12.34;60.32
73338;BME280;61575;49.908;35.556;2023-05-15T03:17:21;99567.84;;;12.45;60.20
73338;BME280;61575;49.908;35.556;2023-05-15T03:20:23;99569.94;;;12.58;59.78
73338;BME280;61575;49.908;35.556;2023-05-15T03:23:25;99577.59;;;12.69;59.43
73338;BME280;61575;49.908;35.556;2023-05-15T03:26:27;99573.63;;;12.79;59.35
73338;BME280;61575;49.908;35.556;2023-05-15T03:29:29;99578.19;;;12.94;59.02
73338;BME280;61575;49.908;35.556;2023-05-15T03:32:31;99580.06;;;13.08;58.40
73338;BME280;61575;49.908;35.556;2023-05-15T03:35:33;99578.41;;;13.22;57.66
73338;BME280;61575;49.908;35.556;2023-05-15T03:38:36;99589.88;;;13.38;57.35
73338;BME280;61575;49.908;35.556;2023-05-15T03:41:38;99587.00;;;13.55;56.59
73338;BME280;61575;49.908;35.556;2023-05-15T03:44:40;99586.41;;;13.74;56.00
73338;BME280;61575;49.908;35.556;2023-05-15T03:47:42;99590.84;;;13.96;55.14
73338;BME280;61575;49.908;35.556;2023-05-15T03:50:44;99596.34;;;14.24;54.66
73338;BME280;61575;49.908;35.556;2023-05-15T03:53:46;99592.88;;;14.52;53.55
73338;BME280;61575;49.908;35.556;2023-05-15T03:56:48;99589.81;;;14.83;52.75
73338;BME280;61575;49.908;35.556;2023-05-15T03:59:50;99594.88;;;15.20;51.95
73338;BME280;61575;49.908;35.556;2023-05-15T04:02:52;99599.34;;;15.62;51.34
73338;BME280;61575;49.908;35.556;2023-05-15T04:05:54;99590.53;;;16.01;50.77
73338;BME280;61575;49.908;35.556;2023-05-15T04:08:56;99599.59;;;16.35;49.62
73338;BME280;61575;49.908;35.556;2023-05-15T04:11:58;99594.47;;;16.66;48.88
73338;BME280;61575;49.908;35.556;2023-05-15T04:18:18;99587.75;;;17.28;47.14
73338;BME280;61575;49.908;35.556;2023-05-15T04:21:20;99587.72;;;17.55;46.17
73338;BME280;61575;49.908;35.556;2023-05-15T04:24:22;99595.13;;;17.86;46.15
73338;BME280;61575;49.908;35.556;2023-05-15T04:27:24;99588.50;;;18.20;45.28
73338;BME280;61575;49.908;35.556;2023-05-15T04:30:27;99595.91;;;18.44;44.33
73338;BME280;61575;49.908;35.556;2023-05-15T04:33:29;99592.56;;;18.74;44.28
73338;BME280;61575;49.908;35.556;2023-05-15T04:36:31;99587.91;;;19.06;43.64
73338;BME280;61575;49.908;35.556;2023-05-15T04:39:33;99596.47;;;19.34;42.20
73338;BME280;61575;49.908;35.556;2023-05-15T04:42:35;99589.91;;;19.60;42.08
73338;BME280;61575;49.908;35.556;2023-05-15T04:45:40;99592.97;;;19.82;40.77
73338;BME280;61575;49.908;35.556;2023-05-15T04:48:42;99590.72;;;20.09;39.95
73338;BME280;61575;49.908;35.556;2023-05-15T04:51:44;99589.66;;;20.28;39.00
73338;BME280;61575;49.908;35.556;2023-05-15T04:54:46;99593.31;;;20.52;38.37
73338;BME280;61575;49.908;35.556;2023-05-15T04:57:50;99593.25;;;20.82;37.77
73338;BME280;61575;49.908;35.556;2023-05-15T05:00:52;99590.22;;;21.02;36.57
73338;BME280;61575;49.908;35.556;2023-05-15T05:03:54;99591.78;;;21.21;35.98
73338;BME280;61575;49.908;35.556;2023-05-15T05:06:56;99601.63;;;21.45;35.92
73338;BME280;61575;49.908;35.556;2023-05-15T05:09:58;99601.16;;;21.72;35.34
73338;BME280;61575;49.908;35.556;2023-05-15T05:13:00;99609.06;;;21.97;35.13
73338;BME280;61575;49.908;35.556;2023-05-15T05:16:02;99609.47;;;22.17;34.02
73338;BME280;61575;49.908;35.556;2023-05-15T05:19:05;99604.28;;;22.44;33.57
73338;BME280;61575;49.908;35.556;2023-05-15T05:22:07;99610.19;;;22.53;33.12
73338;BME280;61575;49.908;35.556;2023-05-15T05:25:09;99601.84;;;22.76;32.59
73338;BME280;61575;49.908;35.556;2023-05-15T05:28:11;99611.00;;;22.98;32.35
73338;BME280;61575;49.908;35.556;2023-05-15T05:31:13;99605.44;;;23.10;31.56
73338;BME280;61575;49.908;35.556;2023-05-15T05:34:15;99598.63;;;23.29;31.52
73338;BME280;61575;49.908;35.556;2023-05-15T05:37:17;99602.56;;;23.55;31.35
73338;BME280;61575;49.908;35.556;2023-05-15T05:40:19;99605.59;;;23.75;30.96
73338;BME280;61575;49.908;35.556;2023-05-15T05:43:21;99602.66;;;23.82;29.70
73338;BME280;61575;49.908;35.556;2023-05-15T05:46:23;99602.06;;;23.97;28.47
73338;BME280;61575;49.908;35.556;2023-05-15T05:49:25;99606.44;;;24.20;28.66
73338;BME280;61575;49.908;35.556;2023-05-15T05:52:27;99607.22;;;24.15;27.32
73338;BME280;61575;49.908;35.556;2023-05-15T05:55:30;99611.50;;;24.06;26.33
73338;BME280;61575;49.908;35.556;2023-05-15T05:58:32;99615.47;;;24.15;26.31
73338;BME280;61575;49.908;35.556;2023-05-15T06:01:34;99606.81;;;24.28;26.66
73338;BME280;61575;49.908;35.556;2023-05-15T06:04:36;99615.94;;;24.56;26.71
73338;BME280;61575;49.908;35.556;2023-05-15T06:07:37;99610.34;;;24.73;25.84
73338;BME280;61575;49.908;35.556;2023-05-15T06:10:40;99615.94;;;24.83;26.14
73338;BME280;61575;49.908;35.556;2023-05-15T06:13:43;99620.81;;;25.13;26.61
73338;BME280;61575;49.908;35.556;2023-05-15T06:16:45;99615.31;;;25.13;25.40
73338;BME280;61575;49.908;35.556;2023-05-15T06:19:47;99610.44;;;25.20;25.60
73338;BME280;61575;49.908;35.556;2023-05-15T06:22:48;99613.63;;;25.39;25.91
73338;BME280;61575;49.908;35.556;2023-05-15T06:25:51;99612.06;;;25.53;25.57
73338;BME280;61575;49.908;35.556;2023-05-15T06:28:52;99611.50;;;25.51;25.72
73338;BME280;61575;49.908;35.556;2023-05-15T06:31:54;99606.91;;;25.66;25.94
73338;BME280;61575;49.908;35.556;2023-05-15T06:34:57;99606.44;;;25.80;25.35
73338;BME280;61575;49.908;35.556;2023-05-15T06:37:58;99611.75;;;25.91;24.72
73338;BME280;61575;49.908;35.556;2023-05-15T06:41:00;99614.03;;;26.10;25.27
73338;BME280;61575;49.908;35.556;2023-05-15T06:44:03;99614.84;;;26.10;25.28
73338;BME280;61575;49.908;35.556;2023-05-15T06:47:05;99618.94;;;25.97;24.56
73338;BME280;61575;49.908;35.556;2023-05-15T06:50:08;99620.84;;;25.97;24.58
73338;BME280;61575;49.908;35.556;2023-05-15T06:53:10;99619.50;;;26.05;24.18
73338;BME280;61575;49.908;35.556;2023-05-15T06:56:15;99619.44;;;25.89;24.33
73338;BME280;61575;49.908;35.556;2023-05-15T06:59:16;99628.34;;;26.07;24.62
73338;BME280;61575;49.908;35.556;2023-05-15T07:02:18;99627.31;;;26.28;24.60
73338;BME280;61575;49.908;35.556;2023-05-15T07:05:20;99623.78;;;26.48;24.48
73338;BME280;61575;49.908;35.556;2023-05-15T07:08:23;99629.34;;;26.58;23.73
73338;BME280;61575;49.908;35.556;2023-05-15T07:11:25;99627.69;;;26.57;24.30
73338;BME280;61575;49.908;35.556;2023-05-15T07:14:27;99615.00;;;26.51;24.13
73338;BME280;61575;49.908;35.556;2023-05-15T07:17:30;99629.34;;;26.53;24.56
73338;BME280;61575;49.908;35.556;2023-05-15T07:20:32;99634.31;;;26.66;24.22
73338;BME280;61575;49.908;35.556;2023-05-15T07:23:35;99622.22;;;26.77;24.17
73338;BME280;61575;49.908;35.556;2023-05-15T07:26:37;99627.19;;;26.75;24.36
73338;BME280;61575;49.908;35.556;2023-05-15T07:29:57;99629.94;;;26.75;23.76
73338;BME280;61575;49.908;35.556;2023-05-15T07:32:59;99620.84;;;26.75;23.81
73338;BME280;61575;49.908;35.556;2023-05-15T07:36:01;99611.47;;;26.91;24.05
73338;BME280;61575;49.908;35.556;2023-05-15T07:39:03;99608.44;;;26.98;23.95
73338;BME280;61575;49.908;35.556;2023-05-15T07:42:05;99610.09;;;27.09;23.85
73338;BME280;61575;49.908;35.556;2023-05-15T07:45:08;99604.56;;;27.49;24.38
73338;BME280;61575;49.908;35.556;2023-05-15T07:48:14;99598.75;;;27.61;23.56
73338;BME280;61575;49.908;35.556;2023-05-15T07:51:17;99597.38;;;27.74;23.70
73338;BME280;61575;49.908;35.556;2023-05-15T07:54:19;99601.53;;;27.46;22.72
73338;BME280;61575;49.908;35.556;2023-05-15T07:57:21;99602.88;;;27.69;23.82
73338;BME280;61575;49.908;35.556;2023-05-15T08:00:23;99597.13;;;27.50;23.01
73338;BME280;61575;49.908;35.556;2023-05-15T08:03:25;99599.91;;;27.40;23.29
73338;BME280;61575;49.908;35.556;2023-05-15T08:06:27;99593.50;;;27.59;22.90
73338;BME280;61575;49.908;35.556;2023-05-15T08:09:29;99599.28;;;27.68;23.46
73338;BME280;61575;49.908;35.556;2023-05-15T08:12:31;99605.56;;;27.94;23.59
73338;BME280;61575;49.908;35.556;2023-05-15T08:15:33;99589.28;;;27.98;22.46
73338;BME280;61575;49.908;35.556;2023-05-15T08:18:35;99590.16;;;27.83;23.69
73338;BME280;61575;49.908;35.556;2023-05-15T08:21:37;99600.84;;;28.05;23.28
73338;BME280;61575;49.908;35.556;2023-05-15T08:24:40;99589.75;;;28.15;22.56
73338;BME280;61575;49.908;35.556;2023-05-15T08:27:42;99585.53;;;28.28;23.11
73338;BME280;61575;49.908;35.556;2023-05-15T08:30:44;99590.78;;;28.29;22.34
73338;BME280;61575;49.908;35.556;2023-05-15T08:33:46;99591.59;;;28.30;21.74
73338;BME280;61575;49.908;35.556;2023-05-15T08:36:48;99591.50;;;28.50;22.21
73338;BME280;61575;49.908;35.556;2023-05-15T08:39:50;99584.13;;;28.79;22.80
73338;BME280;61575;49.908;35.556;2023-05-15T08:42:53;99591.84;;;28.82;21.88
73338;BME280;61575;49.908;35.556;2023-05-15T08:45:56;99587.41;;;28.81;21.98
73338;BME280;61575;49.908;35.556;2023-05-15T08:49:07;99572.81;;;28.76;22.02
73338;BME280;61575;49.908;35.556;2023-05-15T08:52:12;99579.41;;;28.80;21.73
73338;BME280;61575;49.908;35.556;2023-05-15T08:55:15;99575.94;;;28.64;21.86
73338;BME280;61575;49.908;35.556;2023-05-15T08:58:17;99575.28;;;27.69;22.22
73338;BME280;61575;49.908;35.556;2023-05-15T09:01:22;99581.44;;;27.05;22.89
73338;BME280;61575;49.908;35.556;2023-05-15T09:04:24;99575.91;;;27.10;23.37
73338;BME280;61575;49.908;35.556;2023-05-15T09:07:28;99566.19;;;27.63;23.47
73338;BME280;61575;49.908;35.556;2023-05-15T09:10:32;99565.75;;;28.10;22.91
73338;BME280;61575;49.908;35.556;2023-05-15T09:13:34;99571.63;;;28.48;22.78
73338;BME280;61575;49.908;35.556;2023-05-15T09:16:36;99562.63;;;28.71;22.78
73338;BME280;61575;49.908;35.556;2023-05-15T09:19:39;99566.19;;;29.11;22.69
73338;BME280;61575;49.908;35.556;2023-05-15T09:22:41;99558.47;;;29.37;22.07
73338;BME280;61575;49.908;35.556;2023-05-15T09:25:43;99555.03;;;29.50;21.24
73338;BME280;61575;49.908;35.556;2023-05-15T09:29:01;99546.53;;;28.78;21.76
73338;BME280;61575;49.908;35.556;2023-05-15T09:32:08;99553.00;;;28.19;21.77
73338;BME280;61575;49.908;35.556;2023-05-15T09:38:33;99550.59;;;27.18;23.03
73338;BME280;61575;49.908;35.556;2023-05-15T09:41:40;99546.66;;;27.44;22.83
73338;BME280;61575;49.908;35.556;2023-05-15T09:44:45;99538.25;;;27.90;22.70
73338;BME280;61575;49.908;35.556;2023-05-15T09:47:47;99535.88;;;28.17;22.83
73338;BME280;61575;49.908;35.556;2023-05-15T09:50:49;99542.16;;;28.33;22.70
73338;BME280;61575;49.908;35.556;2023-05-15T09:53:52;99542.56;;;28.06;22.77
73338;BME280;61575;49.908;35.556;2023-05-15T09:56:55;99534.47;;;27.60;23.17
73338;BME280;61575;49.908;35.556;2023-05-15T10:00:00;99537.88;;;27.22;23.24
73338;BME280;61575;49.908;35.556;2023-05-15T10:03:12;99537.25;;;27.55;22.85
73338;BME280;61575;49.908;35.556;2023-05-15T10:06:17;99543.28;;;27.63;23.17
73338;BME280;61575;49.908;35.556;2023-05-15T10:09:19;99537.63;;;28.03;22.80
73338;BME280;61575;49.908;35.556;2023-05-15T10:12:23;99531.91;;;28.39;22.18
73338;BME280;61575;49.908;35.556;2023-05-15T10:15:29;99539.94;;;28.74;22.05
73338;BME280;61575;49.908;35.556;2023-05-15T10:18:32;99540.56;;;29.00;21.06
73338;BME280;61575;49.908;35.556;2023-05-15T10:21:38;99535.47;;;28.78;21.77
73338;BME280;61575;49.908;35.556;2023-05-15T10:24:42;99533.34;;;29.04;20.66
73338;BME280;61575;49.908;35.556;2023-05-15T10:27:46;99524.13;;;29.14;21.14
73338;BME280;61575;49.908;35.556;2023-05-15T10:30:48;99527.19;;;29.36;20.99
73338;BME280;61575;49.908;35.556;2023-05-15T10:33:52;99531.72;;;29.56;21.12
73338;BME280;61575;49.908;35.556;2023-05-15T10:36:56;99517.75;;;29.66;20.88
73338;BME280;61575;49.908;35.556;2023-05-15T10:39:59;99516.91;;;29.42;20.71
73338;BME280;61575;49.908;35.556;2023-05-15T10:43:02;99515.34;;;29.07;20.81
73338;BME280;61575;49.908;35.556;2023-05-15T10:46:04;99515.72;;;28.61;21.31
73338;BME280;61575;49.908;35.556;2023-05-15T10:49:07;99519.88;;;28.59;21.91
73338;BME280;61575;49.908;35.556;2023-05-15T10:52:09;99527.44;;;28.82;21.89
73338;BME280;61575;49.908;35.556;2023-05-15T10:55:16;99519.94;;;28.53;20.61
73338;BME280;61575;49.908;35.556;2023-05-15T10:58:22;99526.47;;;28.63;21.07
73338;BME280;61575;49.908;35.556;2023-05-15T11:01:28;99532.09;;;28.52;21.72
73338;BME280;61575;49.908;35.556;2023-05-15T11:04:32;99527.09;;;28.88;21.07
73338;BME280;61575;49.908;35.556;2023-05-15T11:07:35;99526.34;;;29.12;20.71
73338;BME280;61575;49.908;35.556;2023-05-15T11:10:37;99523.56;;;29.41;20.60
73338;BME280;61575;49.908;35.556;2023-05-15T11:14:18;99524.63;;;29.69;21.00
73338;BME280;61575;49.908;35.556;2023-05-15T11:17:23;99517.06;;;29.98;19.59
73338;BME280;61575;49.908;35.556;2023-05-15T11:24:02;99514.59;;;30.15;19.22
73338;BME280;61575;49.908;35.556;2023-05-15T11:27:04;99514.28;;;29.56;19.48
73338;BME280;61575;49.908;35.556;2023-05-15T11:33:09;99513.06;;;29.38;20.83
73338;BME280;61575;49.908;35.556;2023-05-15T11:36:13;99521.00;;;29.49;20.20
73338;BME280;61575;49.908;35.556;2023-05-15T11:39:16;99511.50;;;29.56;20.31
73338;BME280;61575;49.908;35.556;2023-05-15T11:42:18;99522.38;;;29.47;20.08
73338;BME280;61575;49.908;35.556;2023-05-15T11:45:21;99509.09;;;29.49;20.00
73338;BME280;61575;49.908;35.556;2023-05-15T11:48:24;99514.50;;;29.59;19.26
73338;BME280;61575;49.908;35.556;2023-05-15T11:51:28;99508.00;;;29.93;20.10
73338;BME280;61575;49.908;35.556;2023-05-15T11:54:30;99509.28;;;30.00;19.93
73338;BME280;61575;49.908;35.556;2023-05-15T11:57:32;99511.81;;;29.97;19.39
73338;BME280;61575;49.908;35.556;2023-05-15T12:00:34;99506.97;;;30.07;19.13
73338;BME280;61575;49.908;35.556;2023-05-15T12:03:36;99510.53;;;30.27;19.61
73338;BME280;61575;49.908;35.556;2023-05-15T12:06:39;99500.34;;;30.41;19.83
73338;BME280;61575;49.908;35.556;2023-05-15T12:09:42;99504.38;;;30.48;19.79
73338;BME280;61575;49.908;35.556;2023-05-15T12:12:44;99509.41;;;30.28;20.10
73338;BME280;61575;49.908;35.556;2023-05-15T12:15:47;99502.13;;;29.75;20.01
73338;BME280;61575;49.908;35.556;2023-05-15T12:18:49;99492.94;;;29.08;19.95
73338;BME280;61575;49.908;35.556;2023-05-15T12:21:51;99493.41;;;28.52;20.48
73338;BME280;61575;49.908;35.556;2023-05-15T12:24:57;99506.84;;;28.25;21.64
73338;BME280;61575;49.908;35.556;2023-05-15T12:28:01;99499.28;;;27.97;21.32
73338;BME280;61575;49.908;35.556;2023-05-15T12:31:03;99497.19;;;27.78;21.64
73338;BME280;61575;49.908;35.556;2023-05-15T12:34:06;99500.09;;;27.97;21.53
73338;BME280;61575;49.908;35.556;2023-05-15T12:37:13;99487.78;;;28.23;20.96
73338;BME280;61575;49.908;35.556;2023-05-15T12:40:19;99493.13;;;28.54;20.93
73338;BME280;61575;49.908;35.556;2023-05-15T12:43:25;99496.09;;;28.97;20.71
73338;BME280;61575;49.908;35.556;2023-05-15T12:46:30;99492.34;;;29.11;20.46
73338;BME280;61575;49.908;35.556;2023-05-15T12:49:35;99486.69;;;29.22;20.01
73338;BME280;61575;49.908;35.556;2023-05-15T12:52:37;99484.91;;;29.07;20.38
73338;BME280;61575;49.908;35.556;2023-05-15T12:55:39;99494.16;;;28.63;20.53
73338;BME280;61575;49.908;35.556;2023-05-15T12:58:41;99488.63;;;28.24;21.38
73338;BME280;61575;49.908;35.556;2023-05-15T13:01:43;99487.50;;;27.81;22.03
73338;BME280;61575;49.908;35.556;2023-05-15T13:04:46;99479.28;;;27.60;21.89
73338;BME280;61575;49.908;35.556;2023-05-15T13:07:48;99482.44;;;27.34;22.13
73338;BME280;61575;49.908;35.556;2023-05-15T13:10:57;99482.69;;;27.37;22.25
73338;BME280;61575;49.908;35.556;2023-05-15T13:13:59;99475.47;;;27.51;22.08
73338;BME280;61575;49.908;35.556;2023-05-15T13:17:01;99483.09;;;27.80;21.56
73338;BME280;61575;49.908;35.556;2023-05-15T13:20:04;99476.03;;;28.08;21.05
73338;BME280;61575;49.908;35.556;2023-05-15T13:23:08;99471.44;;;28.37;20.94
73338;BME280;61575;49.908;35.556;2023-05-15T13:26:11;99469.63;;;28.57;20.99
73338;BME280;61575;49.908;35.556;2023-05-15T13:29:12;99471.22;;;28.63;21.33
73338;BME280;61575;49.908;35.556;2023-05-15T13:32:14;99464.09;;;28.57;20.64
73338;BME280;61575;49.908;35.556;2023-05-15T13:35:17;99455.47;;;28.63;21.21
73338;BME280;61575;49.908;35.556;2023-05-15T13:38:18;99461.84;;;28.59;21.28
73338;BME280;61575;49.908;35.556;2023-05-15T13:41:21;99463.09;;;28.42;21.81
73338;BME280;61575;49.908;35.556;2023-05-15T13:44:23;99457.25;;;28.49;21.78
73338;BME280;61575;49.908;35.556;2023-05-15T13:47:25;99450.03;;;28.14;21.33
73338;BME280;61575;49.908;35.556;2023-05-15T13:50:27;99459.06;;;27.85;21.78
73338;BME280;61575;49.908;35.556;2023-05-15T13:53:29;99453.28;;;27.82;21.81
73338;BME280;61575;49.908;35.556;2023-05-15T13:56:31;99463.81;;;27.65;21.16
73338;BME280;61575;49.908;35.556;2023-05-15T13:59:33;99460.78;;;27.66;21.97
73338;BME280;61575;49.908;35.556;2023-05-15T14:02:34;99460.19;;;27.79;21.74
73338;BME280;61575;49.908;35.556;2023-05-15T14:05:36;99456.47;;;27.99;21.62
73338;BME280;61575;49.908;35.556;2023-05-15T14:08:38;99454.84;;;27.98;21.60
73338;BME280;61575;49.908;35.556;2023-05-15T14:11:40;99455.06;;;28.07;21.47
73338;BME280;61575;49.908;35.556;2023-05-15T14:14:44;99461.56;;;27.82;20.92
73338;BME280;61575;49.908;35.556;2023-05-15T14:17:46;99454.31;;;27.91;21.20
73338;BME280;61575;49.908;35.556;2023-05-15T14:20:49;99460.50;;;27.73;21.17
73338;BME280;61575;49.908;35.556;2023-05-15T14:23:51;99457.72;;;27.78;21.12
73338;BME280;61575;49.908;35.556;2023-05-15T14:26:53;99447.50;;;27.78;21.16
73338;BME280;61575;49.908;35.556;2023-05-15T14:29:55;99448.91;;;27.66;20.72
73338;BME280;61575;49.908;35.556;2023-05-15T14:32:59;99451.69;;;27.66;21.30
73338;BME280;61575;49.908;35.556;2023-05-15T14:36:02;99439.97;;;27.89;20.52
73338;BME280;61575;49.908;35.556;2023-05-15T14:39:05;99441.56;;;28.00;20.43
73338;BME280;61575;49.908;35.556;2023-05-15T14:42:07;99452.09;;;27.93;20.33
73338;BME280;61575;49.908;35.556;2023-05-15T14:45:09;99457.47;;;27.74;20.23
73338;BME280;61575;49.908;35.556;2023-05-15T14:48:11;99451.13;;;27.74;20.58
73338;BME280;61575;49.908;35.556;2023-05-15T14:51:13;99451.97;;;27.59;20.32
73338;BME280;61575;49.908;35.556;2023-05-15T14:54:14;99457.53;;;27.54;20.34
73338;BME280;61575;49.908;35.556;2023-05-15T14:57:16;99449.84;;;27.41;21.41
73338;BME280;61575;49.908;35.556;2023-05-15T15:00:21;99450.16;;;27.39;21.54
73338;BME280;61575;49.908;35.556;2023-05-15T15:03:23;99448.47;;;27.43;21.57
73338;BME280;61575;49.908;35.556;2023-05-15T15:06:28;99452.63;;;27.41;21.53
73338;BME280;61575;49.908;35.556;2023-05-15T15:09:29;99456.19;;;27.46;21.85
73338;BME280;61575;49.908;35.556;2023-05-15T15:12:32;99458.13;;;27.46;21.74
73338;BME280;61575;49.908;35.556;2023-05-15T15:15:35;99457.06;;;27.37;22.00
73338;BME280;61575;49.908;35.556;2023-05-15T15:18:37;99456.00;;;27.22;21.65
73338;BME280;61575;49.908;35.556;2023-05-15T15:21:39;99462.06;;;27.09;21.95
73338;BME280;61575;49.908;35.556;2023-05-15T15:24:41;99470.09;;;26.85;22.06
73338;BME280;61575;49.908;35.556;2023-05-15T15:27:43;99462.69;;;26.71;22.20
73338;BME280;61575;49.908;35.556;2023-05-15T15:30:46;99472.84;;;26.29;22.73
73338;BME280;61575;49.908;35.556;2023-05-15T15:33:48;99471.44;;;26.07;23.66
73338;BME280;61575;49.908;35.556;2023-05-15T15:36:50;99470.25;;;25.82;23.29
73338;BME280;61575;49.908;35.556;2023-05-15T15:39:52;99472.66;;;25.58;23.69
73338;BME280;61575;49.908;35.556;2023-05-15T15:42:54;99466.03;;;25.49;23.68
73338;BME280;61575;49.908;35.556;2023-05-15T15:45:56;99467.88;;;25.33;23.64
73338;BME280;61575;49.908;35.556;2023-05-15T15:48:58;99472.78;;;25.26;23.99
73338;BME280;61575;49.908;35.556;2023-05-15T15:52:00;99474.00;;;25.03;24.58
73338;BME280;61575;49.908;35.556;2023-05-15T15:55:02;99473.66;;;24.85;24.13
73338;BME280;61575;49.908;35.556;2023-05-15T15:58:04;99470.81;;;24.75;24.37
73338;BME280;61575;49.908;35.556;2023-05-15T16:01:06;99477.56;;;24.57;24.69
73338;BME280;61575;49.908;35.556;2023-05-15T16:04:08;99473.03;;;24.46;24.86
73338;BME280;61575;49.908;35.556;2023-05-15T16:07:10;99475.69;;;24.35;25.04
73338;BME280;61575;49.908;35.556;2023-05-15T16:10:13;99476.69;;;24.24;25.18
73338;BME280;61575;49.908;35.556;2023-05-15T16:13:15;99471.63;;;24.11;25.31
73338;BME280;61575;49.908;35.556;2023-05-15T16:16:17;99474.22;;;23.96;25.40
73338;BME280;61575;49.908;35.556;2023-05-15T16:19:19;99490.53;;;23.86;25.27